createdAt,value
2022-12-05T00:02:55.868Z,97.78
2022-12-05T00:08:01.531Z,97.56
2022-12-05T00:13:09.555Z,97.82
2022-12-05T00:18:16.758Z,97.89
2022-12-05T00:23:24.215Z,97.68
2022-12-05T00:28:32.190Z,98.02
2022-12-05T00:33:40.317Z,97.97
2022-12-05T00:38:47.809Z,97.85
2022-12-05T00:43:56.760Z,97.81
2022-12-05T00:49:05.749Z,98.11
2022-12-05T00:54:15.952Z,98.16
2022-12-05T00:59:23.290Z,98.13
2022-12-05T01:04:30.667Z,98.22
2022-12-05T01:09:38.081Z,97.96
2022-12-05T01:14:45.732Z,97.87
2022-12-05T01:19:53.080Z,98.28
2022-12-05T01:24:59.359Z,98.19
2022-12-05T01:30:08.300Z,98.56
2022-12-05T01:35:16.295Z,98.29
2022-12-05T01:40:23.356Z,98.36
2022-12-05T01:45:36.640Z,98.62
2022-12-05T01:50:44.333Z,98.41
2022-12-05T01:55:53.870Z,98.31
2022-12-05T02:01:01.356Z,98.32
2022-12-05T02:06:10.748Z,98.43
2022-12-05T02:11:18.288Z,98.13
2022-12-05T02:16:40.831Z,98.21
2022-12-05T02:22:09.967Z,98.18
2022-12-05T02:28:10.405Z,98.04
2022-12-05T02:33:25.790Z,97.85
2022-12-05T02:38:38.216Z,97.84
2022-12-05T02:43:51.175Z,97.67
2022-12-05T02:49:02.172Z,97.90
2022-12-05T02:54:15.508Z,98.09
2022-12-05T02:59:23.740Z,97.94
2022-12-05T03:04:33.972Z,97.81
2022-12-05T03:09:45.471Z,97.56
2022-12-05T03:14:58.379Z,98.03
2022-12-05T03:20:10.562Z,97.95
2022-12-05T03:25:19.286Z,97.58
2022-12-05T03:30:27.041Z,97.94
2022-12-05T03:35:42.718Z,98.14
2022-12-05T03:40:54.731Z,98.00
2022-12-05T03:46:07.950Z,98.23
2022-12-05T03:51:18.251Z,98.35
2022-12-05T03:56:32.514Z,98.14
2022-12-05T04:01:43.365Z,98.17
2022-12-05T04:06:55.790Z,98.10
2022-12-05T04:12:08.157Z,98.00
2022-12-05T04:17:22.574Z,97.96
2022-12-05T04:22:31.173Z,98.03
2022-12-05T04:27:45.168Z,98.04
2022-12-05T04:32:59.539Z,98.42
2022-12-05T04:38:11.153Z,98.28
2022-12-05T04:43:21.659Z,98.44
2022-12-05T04:48:30.778Z,98.62
2022-12-05T04:53:41.351Z,99.03
2022-12-05T04:58:49.221Z,99.05
2022-12-05T05:04:01.465Z,99.16
2022-12-05T05:09:09.252Z,98.99
2022-12-05T05:14:16.294Z,99.07
2022-12-05T05:19:23.880Z,99.12
2022-12-05T05:24:31.619Z,99.05
2022-12-05T05:29:38.944Z,98.82
2022-12-05T05:34:46.000Z,98.78
2022-12-05T05:39:53.602Z,98.89
2022-12-05T05:45:00.987Z,98.91
2022-12-05T05:50:10.707Z,99.26
2022-12-05T05:55:20.241Z,99.11
2022-12-05T06:00:28.932Z,99.07
2022-12-05T06:05:36.457Z,99.01
2022-12-05T06:10:43.701Z,98.95
2022-12-05T06:15:51.478Z,98.92
2022-12-05T06:21:00.004Z,99.21
2022-12-05T06:26:11.301Z,99.14
2022-12-05T06:31:21.325Z,99.12
2022-12-05T06:36:29.805Z,99.25
2022-12-05T06:41:37.422Z,99.11
2022-12-05T06:46:44.710Z,99.33
2022-12-05T06:51:52.341Z,99.26
2022-12-05T06:56:59.623Z,99.46
2022-12-05T07:02:08.658Z,99.10
2022-12-05T07:07:16.068Z,98.83
2022-12-05T07:12:23.397Z,98.94
2022-12-05T07:17:30.713Z,99.13
2022-12-05T07:22:40.384Z,99.10
2022-12-05T07:27:47.533Z,98.99
2022-12-05T07:32:55.252Z,98.61
2022-12-05T07:38:01.707Z,98.85
2022-12-05T07:43:08.888Z,98.70
2022-12-05T07:51:39.136Z,98.54
2022-12-05T07:56:47.940Z,98.73
2022-12-05T08:01:55.763Z,98.52
2022-12-05T08:07:03.039Z,97.99
2022-12-05T08:12:11.056Z,97.81
2022-12-05T08:17:19.100Z,97.67
2022-12-05T08:22:27.493Z,97.52
2022-12-05T08:27:33.165Z,97.89
2022-12-05T08:32:40.577Z,97.80
2022-12-05T08:37:48.008Z,98.20
2022-12-05T08:42:56.601Z,98.21
2022-12-05T08:48:04.286Z,98.12
2022-12-05T08:53:11.710Z,98.08
2022-12-05T08:58:17.347Z,97.71
2022-12-05T09:03:24.987Z,97.64
2022-12-05T09:08:32.610Z,97.78
2022-12-05T09:13:40.882Z,97.47
2022-12-05T09:18:49.155Z,97.39
2022-12-05T09:23:57.741Z,97.55
2022-12-05T09:29:14.131Z,97.20
2022-12-05T09:34:25.288Z,96.80
2022-12-05T09:39:32.875Z,96.92
2022-12-05T09:44:55.441Z,97.07
2022-12-05T09:50:13.944Z,96.55
2022-12-05T09:55:24.138Z,96.69
2022-12-05T10:00:34.322Z,96.38
2022-12-05T10:05:49.115Z,96.48
2022-12-05T10:11:05.498Z,96.60
2022-12-05T10:16:19.448Z,95.89
2022-12-05T10:21:32.657Z,95.75
2022-12-05T10:26:47.241Z,95.57
2022-12-05T10:32:04.376Z,95.38
2022-12-05T10:37:19.111Z,94.59
2022-12-05T10:42:31.134Z,94.08
2022-12-05T10:47:38.787Z,94.17
2022-12-05T10:52:47.116Z,94.07
2022-12-05T10:58:16.819Z,93.83
2022-12-05T11:03:35.916Z,93.81
2022-12-05T11:09:07.991Z,93.57
2022-12-05T11:14:26.411Z,93.34
2022-12-05T11:19:36.542Z,93.15
2022-12-05T11:24:44.009Z,93.09
2022-12-05T11:30:00.278Z,92.84
2022-12-05T11:35:26.397Z,92.38
2022-12-05T11:40:45.155Z,91.91
2022-12-05T11:46:03.848Z,91.39
2022-12-05T11:51:25.102Z,91.11
2022-12-05T11:56:39.213Z,91.20
2022-12-05T12:01:57.764Z,91.18
2022-12-05T12:07:21.637Z,91.20
2022-12-05T12:12:40.749Z,91.18
2022-12-05T12:17:56.537Z,90.89
2022-12-05T12:23:20.136Z,90.61
2022-12-05T12:28:40.541Z,90.47
2022-12-05T12:33:54.043Z,90.51
2022-12-05T12:39:12.514Z,90.52
2022-12-05T12:51:48.050Z,89.95
2022-12-05T12:57:12.135Z,89.73
2022-12-05T13:02:26.830Z,89.70
2022-12-05T13:07:40.454Z,89.66
2022-12-05T13:12:48.913Z,89.62
2022-12-05T13:17:57.968Z,89.52
2022-12-05T13:23:08.561Z,89.86
2022-12-05T13:28:30.001Z,89.86
2022-12-05T13:33:46.470Z,90.07
2022-12-05T13:39:18.049Z,89.93
2022-12-05T13:44:34.764Z,90.00
2022-12-05T13:49:49.041Z,89.82
2022-12-05T13:55:04.225Z,89.83
2022-12-05T14:00:32.330Z,89.76
2022-12-05T14:05:57.953Z,89.79
2022-12-05T14:11:15.087Z,89.91
2022-12-05T14:16:53.961Z,90.06
2022-12-05T14:22:15.566Z,89.85
2022-12-05T14:27:29.856Z,90.20
2022-12-05T14:32:40.212Z,90.43
2022-12-05T14:37:55.306Z,90.53
2022-12-05T14:43:05.625Z,90.86
2022-12-05T14:48:29.143Z,90.92
2022-12-05T14:53:43.089Z,90.88
2022-12-05T14:58:57.268Z,90.97
2022-12-05T15:04:18.689Z,91.09
2022-12-05T15:09:41.495Z,90.69
2022-12-05T15:14:55.122Z,91.06
2022-12-05T15:30:17.073Z,91.32
2022-12-05T15:35:23.894Z,91.23
2022-12-05T15:40:36.923Z,91.53
2022-12-05T15:45:41.653Z,91.31
2022-12-05T15:50:49.830Z,91.40
2022-12-05T15:55:58.508Z,91.76
2022-12-05T16:01:06.347Z,91.83
2022-12-05T16:06:17.332Z,92.22
2022-12-05T16:11:21.897Z,92.07
2022-12-05T16:16:31.261Z,92.06
2022-12-05T16:21:38.944Z,91.75
2022-12-05T16:26:43.996Z,92.15
2022-12-05T16:31:55.850Z,92.10
2022-12-05T16:37:00.041Z,92.50
2022-12-05T16:42:17.147Z,92.82
2022-12-05T16:47:25.379Z,92.48
2022-12-05T16:52:31.868Z,92.30
2022-12-05T16:57:35.677Z,92.82
2022-12-05T17:02:39.475Z,92.65
2022-12-05T17:07:43.191Z,92.32
2022-12-05T17:12:47.788Z,92.80
2022-12-05T17:17:52.189Z,93.64
2022-12-05T17:22:56.014Z,93.38
2022-12-05T17:28:00.250Z,93.55
2022-12-05T17:33:03.953Z,93.73
2022-12-05T17:38:07.786Z,93.93
2022-12-05T17:43:13.963Z,93.15
2022-12-05T17:48:17.715Z,93.11
2022-12-05T17:53:22.254Z,93.11
2022-12-05T17:58:27.888Z,93.79
2022-12-05T18:03:31.696Z,94.39
2022-12-05T18:08:39.327Z,94.22
2022-12-05T18:13:42.936Z,94.71
2022-12-05T18:18:47.376Z,94.23
2022-12-05T18:23:52.218Z,94.81
2022-12-05T18:28:56.961Z,95.00
2022-12-05T18:34:00.797Z,95.11
2022-12-05T18:39:05.110Z,95.51
2022-12-05T18:44:10.319Z,95.58
2022-12-05T18:49:16.546Z,95.61
2022-12-05T18:54:21.507Z,96.09
2022-12-05T18:59:25.507Z,95.83
2022-12-05T19:04:30.154Z,96.08
2022-12-05T19:09:35.409Z,96.11
2022-12-05T19:14:40.855Z,96.27
2022-12-05T19:19:45.061Z,96.38
2022-12-05T19:24:48.952Z,96.26
2022-12-05T19:40:05.606Z,96.95
2022-12-05T19:45:17.892Z,97.28
2022-12-05T19:50:26.044Z,97.53
2022-12-05T19:55:33.756Z,98.06
2022-12-05T20:00:41.883Z,98.20
2022-12-05T20:05:59.274Z,97.73
2022-12-05T20:11:09.883Z,97.53
2022-12-05T20:16:20.201Z,97.97
2022-12-05T20:21:30.683Z,98.05
2022-12-05T20:26:39.585Z,98.48
2022-12-05T20:31:47.183Z,98.77
2022-12-05T20:36:54.653Z,98.95
2022-12-05T20:42:02.016Z,98.85
2022-12-05T20:47:10.121Z,98.97
2022-12-05T20:52:17.237Z,98.56
2022-12-05T20:57:24.334Z,98.72
2022-12-05T21:02:30.005Z,99.37
2022-12-05T21:07:37.698Z,99.77
2022-12-05T21:12:45.333Z,99.97
2022-12-05T21:17:52.730Z,99.89
2022-12-05T21:22:58.286Z,99.76
2022-12-05T21:28:05.779Z,99.52
2022-12-05T21:33:13.504Z,98.86
2022-12-05T21:38:21.324Z,98.78
2022-12-05T21:43:28.634Z,99.16
2022-12-05T21:48:34.958Z,99.26
2022-12-05T21:53:42.394Z,99.78
2022-12-05T21:58:50.809Z,99.89
2022-12-05T22:04:01.035Z,99.68
2022-12-05T22:09:09.261Z,99.56
2022-12-05T22:14:16.607Z,99.47
2022-12-05T22:19:24.013Z,99.02
2022-12-05T22:24:32.196Z,99.20
2022-12-05T22:29:39.699Z,99.59
2022-12-05T22:34:47.273Z,99.74
2022-12-05T22:39:55.585Z,99.74
2022-12-05T22:45:03.593Z,99.66
2022-12-05T22:50:12.690Z,99.02
2022-12-05T22:55:20.770Z,98.64
2022-12-05T23:00:28.194Z,99.04
2022-12-05T23:05:40.415Z,99.09
2022-12-05T23:10:47.691Z,99.55
2022-12-05T23:15:53.507Z,99.92
2022-12-05T23:21:05.914Z,100.00
2022-12-05T23:26:14.557Z,99.95
2022-12-05T23:31:23.169Z,99.74
2022-12-05T23:36:30.664Z,99.56
2022-12-05T23:41:38.351Z,99.59
2022-12-05T23:46:45.540Z,99.80
2022-12-05T23:51:53.407Z,99.46
2022-12-05T23:57:00.985Z,99.17
